New England — V7HF3 — position and weather

sailwx.info

Track history (hours):
 
Tides and Currents Weather Stations Pressure Air Temp Water Temp Dewpoint Dewpoint Depression Visibility Wind Speed Wind Dir Waves Ship Positions

New England

Last reported at 2017-Jun-22 22:31 UTC. Time now 2017-Jun-22 22:33 UTC.
Position N 42°20' W 070°58'.

Length 183 m; draft 7.4 m.

Type: Ship. MMSI: 538002220.

Date/timePositionNaut miles runAvg speedWind from/ knotsBaromVisibWave heightAir tempDewpointWater temp
2017-Jun-22 22:31N 42°20' W 070°58'4 8.6
2017-Jun-22 22:01N 42°23' W 071°03'2 3.3
2017-Jun-22 21:31N 42°24' W 071°01'0 0.0
2017-Jun-21 09:46N 42°24' W 071°01'0 0.0
2017-Jun-21 09:30N 42°24' W 071°01'1 2.0
2017-Jun-21 09:00N 42°23' W 071°02'2 3.0
2017-Jun-21 08:30N 42°22' W 071°03'3 6.9
2017-Jun-21 08:00N 42°20' W 070°58'0 0.5
2017-Jun-21 07:30N 42°20' W 070°58'0 0.2
2017-Jun-21 07:00N 42°20' W 070°58'0 0.0
2017-Jun-21 06:21N 42°20' W 070°58'0 0.0
2017-Jun-21 06:00N 42°20' W 070°58'0 0.0
2017-Jun-21 05:30N 42°20' W 070°58'0 0.0
2017-Jun-21 05:00N 42°20' W 070°58'0 0.0
2017-Jun-21 04:30N 42°20' W 070°58'0 0.0
2017-Jun-21 03:51N 42°20' W 070°58'0 0.1
2017-Jun-21 03:30N 42°20' W 070°58'0 0.1
2017-Jun-21 03:00N 42°20' W 070°58'0 0.1
2017-Jun-21 02:31N 42°20' W 070°58'1 2.5
2017-Jun-21 02:01N 42°20' W 070°57'4 8.0
2017-Jun-21 01:31N 42°23' W 070°53'611.6
2017-Jun-21 01:01N 42°25' W 070°46'612.9
2017-Jun-21 00:30N 42°30' W 070°39'713.2
2017-Jun-21 00:00N 42°34' W 070°32'613.0
2017-Jun-20 23:31N 42°38' W 070°26'510.4
2017-Jun-20 23:01N 42°43' W 070°27'713.3
2017-Jun-20 22:30N 42°49' W 070°33'713.2
2017-Jun-20 22:00N 42°54' W 070°38'  
2017-Jun-17 18:36N 44°02' W 069°01'111.7
2017-Jun-17 18:30N 44°04' W 069°00'711.9
2017-Jun-17 17:55N 44°10' W 068°56'4 0.1
2017-Jun-16 00:41N 44°12' W 069°00'313.1
2017-Jun-16 00:27N 44°09' W 069°00'8812.7
2017-Jun-15 17:28N 42°55' W 070°08'714.6
2017-Jun-15 17:00N 42°49' W 070°13'714.5
2017-Jun-15 16:30N 42°44' W 070°19'714.4
2017-Jun-15 16:00N 42°39' W 070°26'714.1
2017-Jun-15 15:30N 42°34' W 070°33'714.0
2017-Jun-15 15:00N 42°29' W 070°40'1313.0
2017-Jun-15 14:00N 42°22' W 070°55'5 9.4
2017-Jun-15 13:30N 42°21' W 071°01'3 5.2
2017-Jun-15 13:00N 42°23' W 071°02'1 2.5
2017-Jun-15 12:30N 42°24' W 071°01'0 0.0
2017-Jun-15 11:15N 42°24' W 071°01'0 0.0
2017-Jun-15 11:00N 42°24' W 071°01'0 0.0
2017-Jun-15 10:27N 42°24' W 071°01'0 0.0
2017-Jun-15 09:57N 42°24' W 071°01'0 0.0
2017-Jun-15 09:15N 42°24' W 071°01'0 0.0
2017-Jun-15 08:45N 42°24' W 071°01'0 0.0
2017-Jun-15 08:09N 42°24' W 071°01'0 0.0
2017-Jun-15 07:57N 42°24' W 071°01'0 0.0
2017-Jun-15 04:54N 42°24' W 071°01'0 0.0
2017-Jun-15 04:30N 42°24' W 071°01'0 0.0
2017-Jun-15 03:21N 42°24' W 071°01'0 0.0
2017-Jun-15 02:51N 42°24' W 071°01'0 0.0
2017-Jun-15 02:30N 42°24' W 071°01'0 0.0
2017-Jun-15 01:57N 42°24' W 071°01'0 0.0
2017-Jun-15 01:30N 42°24' W 071°01'0 0.0
2017-Jun-15 00:57N 42°24' W 071°01'0 0.0
2017-Jun-15 00:27N 42°24' W 071°01'0 0.0
2017-Jun-14 23:54N 42°24' W 071°01'0 0.0
2017-Jun-14 23:24N 42°24' W 071°01'0 0.0
2017-Jun-14 23:00N 42°24' W 071°01'0 0.0
2017-Jun-14 22:21N 42°24' W 071°01'0 0.0
2017-Jun-14 22:00N 42°24' W 071°01'0 0.0
2017-Jun-14 21:30N 42°24' W 071°01'0 0.0
2017-Jun-14 18:06N 42°24' W 071°01'0 0.0
2017-Jun-14 17:57N 42°24' W 071°01'1 2.0
2017-Jun-14 17:30N 42°23' W 071°01'1 2.5
2017-Jun-14 17:00N 42°22' W 071°03'3 5.1
2017-Jun-14 16:30N 42°20' W 071°00'1 3.0
2017-Jun-14 16:00N 42°20' W 070°59'0 0.6
2017-Jun-14 15:28N 42°20' W 070°58'0 0.0
2017-Jun-14 14:58N 42°20' W 070°58'0 0.1
2017-Jun-14 14:28N 42°20' W 070°58'0 0.1
2017-Jun-14 13:28N 42°20' W 070°58'0 0.1
2017-Jun-14 12:58N 42°20' W 070°58'0 0.0
2017-Jun-14 12:28N 42°20' W 070°58'0 0.1
2017-Jun-14 11:58N 42°20' W 070°58'0 0.0
2017-Jun-14 11:25N 42°20' W 070°58'0 0.1
2017-Jun-14 10:58N 42°20' W 070°58'0 0.1
2017-Jun-14 10:28N 42°20' W 070°58'0 0.1
2017-Jun-14 09:58N 42°20' W 070°58'0 0.0
2017-Jun-14 09:28N 42°20' W 070°58'0 0.1
2017-Jun-14 08:58N 42°20' W 070°58'0 0.0
2017-Jun-14 08:22N 42°20' W 070°58'0 0.0
2017-Jun-14 07:49N 42°20' W 070°58'0 0.1
2017-Jun-14 07:28N 42°20' W 070°58'0 0.1
2017-Jun-14 06:58N 42°20' W 070°58'0 0.2
2017-Jun-14 06:28N 42°20' W 070°58'0 0.1
2017-Jun-14 05:55N 42°20' W 070°58'0 0.0
2017-Jun-14 05:28N 42°20' W 070°58'0 0.0
2017-Jun-14 04:58N 42°20' W 070°58'0 0.2
2017-Jun-14 04:28N 42°20' W 070°58'0 0.0
2017-Jun-14 03:58N 42°20' W 070°58'0 0.3
2017-Jun-14 03:28N 42°20' W 070°58'0 0.2
2017-Jun-14 02:58N 42°20' W 070°58'0 0.0
2017-Jun-14 02:28N 42°20' W 070°58'0 0.1
2017-Jun-14 01:55N 42°20' W 070°58'0 0.3
2017-Jun-14 01:28N 42°20' W 070°58'0 0.1
2017-Jun-14 00:58N 42°20' W 070°58'0 0.1
2017-Jun-14 00:30N 42°20' W 070°58'0 0.0
2017-Jun-13 23:57N 42°20' W 070°58'0 0.0
2017-Jun-13 23:30N 42°20' W 070°58'0 0.0
2017-Jun-13 23:00N 42°20' W 070°58'0 0.0
2017-Jun-13 22:30N 42°20' W 070°58'0 0.1
2017-Jun-13 22:00N 42°20' W 070°58'0 0.1
2017-Jun-13 21:30N 42°20' W 070°58'0 0.1
2017-Jun-13 21:00N 42°20' W 070°58'0 0.0
2017-Jun-13 20:27N 42°20' W 070°58'0 0.0
2017-Jun-13 20:00N 42°20' W 070°58'0 0.0
2017-Jun-13 19:30N 42°20' W 070°58'0 0.0
2017-Jun-13 19:00N 42°20' W 070°58'0 0.0
2017-Jun-13 18:30N 42°20' W 070°58'0 0.1
2017-Jun-13 18:00N 42°20' W 070°58'0 0.1
2017-Jun-13 17:30N 42°20' W 070°58'0 0.1
2017-Jun-13 17:00N 42°20' W 070°58'0 0.2
2017-Jun-13 16:30N 42°21' W 070°58'0 0.2
2017-Jun-13 16:00N 42°20' W 070°59'1 2.1
2017-Jun-13 15:30N 42°20' W 070°60'3 6.9
2017-Jun-13 15:00N 42°23' W 071°03'2 1.5
2017-Jun-13 14:00N 42°24' W 071°01'0 0.0
2017-Jun-13 13:29N 42°24' W 071°01'0 0.0
2017-Jun-13 12:59N 42°24' W 071°01'0 0.0
2017-Jun-13 12:29N 42°24' W 071°01'0 0.0
2017-Jun-13 11:59N 42°24' W 071°01'0 0.0
2017-Jun-13 11:29N 42°24' W 071°01'0 0.0
2017-Jun-13 10:59N 42°24' W 071°01'0 0.0
2017-Jun-13 10:29N 42°24' W 071°01'0 0.0
2017-Jun-13 09:56N 42°24' W 071°01'0 0.0
2017-Jun-13 09:26N 42°24' W 071°01'0 0.0
2017-Jun-13 08:56N 42°24' W 071°01'0 0.0
2017-Jun-13 08:26N 42°24' W 071°01'0 0.0
2017-Jun-13 07:56N 42°24' W 071°01'0 0.0
2017-Jun-13 07:23N 42°24' W 071°01'0 0.0
2017-Jun-13 06:56N 42°24' W 071°01'0 0.0
2017-Jun-13 06:29N 42°24' W 071°01'0 0.0
2017-Jun-13 05:59N 42°24' W 071°01'0 0.0
2017-Jun-13 05:29N 42°24' W 071°01'0 0.0
2017-Jun-13 04:59N 42°24' W 071°01'0 0.0
2017-Jun-13 04:29N 42°24' W 071°01'0 0.0
2017-Jun-13 03:59N 42°24' W 071°01'0 0.0
2017-Jun-13 03:29N 42°24' W 071°01'0 0.0
2017-Jun-13 02:59N 42°24' W 071°01'0 0.0
2017-Jun-13 02:29N 42°24' W 071°01'0 0.0
2017-Jun-13 01:59N 42°24' W 071°01'0 0.0
2017-Jun-13 01:29N 42°24' W 071°01'0 0.0
2017-Jun-13 00:59N 42°24' W 071°01'0 0.0
2017-Jun-13 00:29N 42°24' W 071°01'0 0.0
2017-Jun-12 23:56N 42°24' W 071°01'0 0.0
2017-Jun-12 23:29N 42°24' W 071°01'0 0.0
2017-Jun-12 22:56N 42°24' W 071°01'  
Track history (hours):
 
Tides and Currents Weather Stations Pressure Air Temp Water Temp Dewpoint Dewpoint Depression Visibility Wind Speed Wind Dir Waves Ship Positions

New England

Last reported at 2017-Jun-22 22:31 UTC. Time now 2017-Jun-22 22:33 UTC.
Position N 42°20' W 070°58'.

Length 183 m; draft 7.4 m.

Type: Ship. MMSI: 538002220.

Date/timePositionNaut miles runAvg speedWind from/ knotsBaromVisibWave heightAir tempDewpointWater temp
2017-Jun-22 22:31N 42°20' W 070°58'4 8.6
2017-Jun-22 22:01N 42°23' W 071°03'2 3.3
2017-Jun-22 21:31N 42°24' W 071°01'0 0.0
2017-Jun-21 09:46N 42°24' W 071°01'0 0.0
2017-Jun-21 09:30N 42°24' W 071°01'1 2.0
2017-Jun-21 09:00N 42°23' W 071°02'2 3.0
2017-Jun-21 08:30N 42°22' W 071°03'3 6.9
2017-Jun-21 08:00N 42°20' W 070°58'0 0.5
2017-Jun-21 07:30N 42°20' W 070°58'0 0.2
2017-Jun-21 07:00N 42°20' W 070°58'0 0.0
2017-Jun-21 06:21N 42°20' W 070°58'0 0.0
2017-Jun-21 06:00N 42°20' W 070°58'0 0.0
2017-Jun-21 05:30N 42°20' W 070°58'0 0.0
2017-Jun-21 05:00N 42°20' W 070°58'0 0.0
2017-Jun-21 04:30N 42°20' W 070°58'0 0.0
2017-Jun-21 03:51N 42°20' W 070°58'0 0.1
2017-Jun-21 03:30N 42°20' W 070°58'0 0.1
2017-Jun-21 03:00N 42°20' W 070°58'0 0.1
2017-Jun-21 02:31N 42°20' W 070°58'1 2.5
2017-Jun-21 02:01N 42°20' W 070°57'4 8.0
2017-Jun-21 01:31N 42°23' W 070°53'611.6
2017-Jun-21 01:01N 42°25' W 070°46'612.9
2017-Jun-21 00:30N 42°30' W 070°39'713.2
2017-Jun-21 00:00N 42°34' W 070°32'613.0
2017-Jun-20 23:31N 42°38' W 070°26'510.4
2017-Jun-20 23:01N 42°43' W 070°27'713.3
2017-Jun-20 22:30N 42°49' W 070°33'713.2
2017-Jun-20 22:00N 42°54' W 070°38'  
2017-Jun-17 18:36N 44°02' W 069°01'111.7
2017-Jun-17 18:30N 44°04' W 069°00'711.9
2017-Jun-17 17:55N 44°10' W 068°56'4 0.1
2017-Jun-16 00:41N 44°12' W 069°00'313.1
2017-Jun-16 00:27N 44°09' W 069°00'8812.7
2017-Jun-15 17:28N 42°55' W 070°08'714.6
2017-Jun-15 17:00N 42°49' W 070°13'714.5
2017-Jun-15 16:30N 42°44' W 070°19'714.4
2017-Jun-15 16:00N 42°39' W 070°26'714.1
2017-Jun-15 15:30N 42°34' W 070°33'714.0
2017-Jun-15 15:00N 42°29' W 070°40'1313.0
2017-Jun-15 14:00N 42°22' W 070°55'5 9.4
2017-Jun-15 13:30N 42°21' W 071°01'3 5.2
2017-Jun-15 13:00N 42°23' W 071°02'1 2.5
2017-Jun-15 12:30N 42°24' W 071°01'0 0.0
2017-Jun-15 11:15N 42°24' W 071°01'0 0.0
2017-Jun-15 11:00N 42°24' W 071°01'0 0.0
2017-Jun-15 10:27N 42°24' W 071°01'0 0.0
2017-Jun-15 09:57N 42°24' W 071°01'0 0.0
2017-Jun-15 09:15N 42°24' W 071°01'0 0.0
2017-Jun-15 08:45N 42°24' W 071°01'0 0.0
2017-Jun-15 08:09N 42°24' W 071°01'0 0.0
2017-Jun-15 07:57N 42°24' W 071°01'0 0.0
2017-Jun-15 04:54N 42°24' W 071°01'0 0.0
2017-Jun-15 04:30N 42°24' W 071°01'0 0.0
2017-Jun-15 03:21N 42°24' W 071°01'0 0.0
2017-Jun-15 02:51N 42°24' W 071°01'0 0.0
2017-Jun-15 02:30N 42°24' W 071°01'0 0.0
2017-Jun-15 01:57N 42°24' W 071°01'0 0.0
2017-Jun-15 01:30N 42°24' W 071°01'0 0.0
2017-Jun-15 00:57N 42°24' W 071°01'0 0.0
2017-Jun-15 00:27N 42°24' W 071°01'0 0.0
2017-Jun-14 23:54N 42°24' W 071°01'0 0.0
2017-Jun-14 23:24N 42°24' W 071°01'0 0.0
2017-Jun-14 23:00N 42°24' W 071°01'0 0.0
2017-Jun-14 22:21N 42°24' W 071°01'0 0.0
2017-Jun-14 22:00N 42°24' W 071°01'0 0.0
2017-Jun-14 21:30N 42°24' W 071°01'0 0.0
2017-Jun-14 18:06N 42°24' W 071°01'0 0.0
2017-Jun-14 17:57N 42°24' W 071°01'1 2.0
2017-Jun-14 17:30N 42°23' W 071°01'1 2.5
2017-Jun-14 17:00N 42°22' W 071°03'3 5.1
2017-Jun-14 16:30N 42°20' W 071°00'1 3.0
2017-Jun-14 16:00N 42°20' W 070°59'0 0.6
2017-Jun-14 15:28N 42°20' W 070°58'0 0.0
2017-Jun-14 14:58N 42°20' W 070°58'0 0.1
2017-Jun-14 14:28N 42°20' W 070°58'0 0.1
2017-Jun-14 13:28N 42°20' W 070°58'0 0.1
2017-Jun-14 12:58N 42°20' W 070°58'0 0.0
2017-Jun-14 12:28N 42°20' W 070°58'0 0.1
2017-Jun-14 11:58N 42°20' W 070°58'0 0.0
2017-Jun-14 11:25N 42°20' W 070°58'0 0.1
2017-Jun-14 10:58N 42°20' W 070°58'0 0.1
2017-Jun-14 10:28N 42°20' W 070°58'0 0.1
2017-Jun-14 09:58N 42°20' W 070°58'0 0.0
2017-Jun-14 09:28N 42°20' W 070°58'0 0.1
2017-Jun-14 08:58N 42°20' W 070°58'0 0.0
2017-Jun-14 08:22N 42°20' W 070°58'0 0.0
2017-Jun-14 07:49N 42°20' W 070°58'0 0.1
2017-Jun-14 07:28N 42°20' W 070°58'0 0.1
2017-Jun-14 06:58N 42°20' W 070°58'0 0.2
2017-Jun-14 06:28N 42°20' W 070°58'0 0.1
2017-Jun-14 05:55N 42°20' W 070°58'0 0.0
2017-Jun-14 05:28N 42°20' W 070°58'0 0.0
2017-Jun-14 04:58N 42°20' W 070°58'0 0.2
2017-Jun-14 04:28N 42°20' W 070°58'0 0.0
2017-Jun-14 03:58N 42°20' W 070°58'0 0.3
2017-Jun-14 03:28N 42°20' W 070°58'0 0.2
2017-Jun-14 02:58N 42°20' W 070°58'0 0.0
2017-Jun-14 02:28N 42°20' W 070°58'0 0.1
2017-Jun-14 01:55N 42°20' W 070°58'0 0.3
2017-Jun-14 01:28N 42°20' W 070°58'0 0.1
2017-Jun-14 00:58N 42°20' W 070°58'0 0.1
2017-Jun-14 00:30N 42°20' W 070°58'0 0.0
2017-Jun-13 23:57N 42°20' W 070°58'0 0.0
2017-Jun-13 23:30N 42°20' W 070°58'0 0.0
2017-Jun-13 23:00N 42°20' W 070°58'0 0.0
2017-Jun-13 22:30N 42°20' W 070°58'0 0.1
2017-Jun-13 22:00N 42°20' W 070°58'0 0.1
2017-Jun-13 21:30N 42°20' W 070°58'0 0.1
2017-Jun-13 21:00N 42°20' W 070°58'0 0.0
2017-Jun-13 20:27N 42°20' W 070°58'0 0.0
2017-Jun-13 20:00N 42°20' W 070°58'0 0.0
2017-Jun-13 19:30N 42°20' W 070°58'0 0.0
2017-Jun-13 19:00N 42°20' W 070°58'0 0.0
2017-Jun-13 18:30N 42°20' W 070°58'0 0.1
2017-Jun-13 18:00N 42°20' W 070°58'0 0.1
2017-Jun-13 17:30N 42°20' W 070°58'0 0.1
2017-Jun-13 17:00N 42°20' W 070°58'0 0.2
2017-Jun-13 16:30N 42°21' W 070°58'0 0.2
2017-Jun-13 16:00N 42°20' W 070°59'1 2.1
2017-Jun-13 15:30N 42°20' W 070°60'3 6.9
2017-Jun-13 15:00N 42°23' W 071°03'2 1.5
2017-Jun-13 14:00N 42°24' W 071°01'0 0.0
2017-Jun-13 13:29N 42°24' W 071°01'0 0.0
2017-Jun-13 12:59N 42°24' W 071°01'0 0.0
2017-Jun-13 12:29N 42°24' W 071°01'0 0.0
2017-Jun-13 11:59N 42°24' W 071°01'0 0.0
2017-Jun-13 11:29N 42°24' W 071°01'0 0.0
2017-Jun-13 10:59N 42°24' W 071°01'0 0.0
2017-Jun-13 10:29N 42°24' W 071°01'0 0.0
2017-Jun-13 09:56N 42°24' W 071°01'0 0.0
2017-Jun-13 09:26N 42°24' W 071°01'0 0.0
2017-Jun-13 08:56N 42°24' W 071°01'0 0.0
2017-Jun-13 08:26N 42°24' W 071°01'0 0.0
2017-Jun-13 07:56N 42°24' W 071°01'0 0.0
2017-Jun-13 07:23N 42°24' W 071°01'0 0.0
2017-Jun-13 06:56N 42°24' W 071°01'0 0.0
2017-Jun-13 06:29N 42°24' W 071°01'0 0.0
2017-Jun-13 05:59N 42°24' W 071°01'0 0.0
2017-Jun-13 05:29N 42°24' W 071°01'0 0.0
2017-Jun-13 04:59N 42°24' W 071°01'0 0.0
2017-Jun-13 04:29N 42°24' W 071°01'0 0.0
2017-Jun-13 03:59N 42°24' W 071°01'0 0.0
2017-Jun-13 03:29N 42°24' W 071°01'0 0.0
2017-Jun-13 02:59N 42°24' W 071°01'0 0.0
2017-Jun-13 02:29N 42°24' W 071°01'0 0.0
2017-Jun-13 01:59N 42°24' W 071°01'0 0.0
2017-Jun-13 01:29N 42°24' W 071°01'0 0.0
2017-Jun-13 00:59N 42°24' W 071°01'0 0.0
2017-Jun-13 00:29N 42°24' W 071°01'0 0.0
2017-Jun-12 23:56N 42°24' W 071°01'0 0.0
2017-Jun-12 23:29N 42°24' W 071°01'0 0.0
2017-Jun-12 22:56N 42°24' W 071°01'  

Dump ship's entire track history